Time;durP1;ratioP1;P1;durP2;ratioP2;P2;SDS_P1;SDS_P2;PMS_P1;PMS_P2;Temp;Humidity;BMP_temperature;BMP_pressure;BME280_temperature;BME280_humidity;BME280_pressure;Samples;Min_cycle;Max_cycle;Signal;HPM_P1;HPM_P2
2024/04/17 00:02:13;;;;;;;2.53;2.30;;;1.60;99.90;;;;;;1884673;75;25316;-85
2024/04/17 00:07:42;;;;;;;1.93;1.80;;;1.60;99.90;;;;;;1935515;72;26997;-86
2024/04/17 00:10:30;;;;;;;4.37;2.37;;;1.60;99.90;;;;;;1898595;75;25338;-86
2024/04/17 00:16:01;;;;;;;3.30;2.10;;;1.60;99.90;;;;;;1928424;72;27138;-86
2024/04/17 00:18:50;;;;;;;2.13;1.93;;;1.70;99.90;;;;;;1921339;73;25257;-86
2024/04/17 00:21:39;;;;;;;3.13;2.20;;;1.70;99.90;;;;;;1857898;76;25250;-86
2024/04/17 00:24:27;;;;;;;3.40;1.87;;;1.80;99.90;;;;;;1834264;76;25326;-86
2024/04/17 00:27:16;;;;;;;3.60;2.00;;;1.80;99.90;;;;;;1848804;76;25764;-86
2024/04/17 00:30:06;;;;;;;3.47;1.90;;;1.80;99.90;;;;;;1847577;76;25233;-86
2024/04/17 00:32:54;;;;;;;3.03;2.00;;;1.90;99.90;;;;;;1835193;76;25747;-86
2024/04/17 00:35:43;;;;;;;6.10;1.93;;;1.90;99.90;;;;;;1859434;76;25324;-86
2024/04/17 00:38:31;;;;;;;5.03;2.40;;;2.00;99.90;;;;;;1833294;78;25357;-85
2024/04/17 00:41:20;;;;;;;5.17;2.20;;;1.90;99.90;;;;;;1820714;77;25226;-86
2024/04/17 00:44:09;;;;;;;2.50;2.20;;;1.90;99.90;;;;;;1829867;76;25211;-86
2024/04/17 00:46:57;;;;;;;3.20;2.07;;;1.80;99.90;;;;;;1857654;76;25636;-86
2024/04/17 00:49:46;;;;;;;3.30;2.30;;;1.80;99.90;;;;;;1840048;76;25261;-86
2024/04/17 00:52:36;;;;;;;9.80;2.30;;;1.70;99.90;;;;;;1854148;76;25316;-86
2024/04/17 00:58:11;;;;;;;2.07;1.83;;;1.40;99.90;;;;;;1944285;72;27553;-86
2024/04/17 01:03:40;;;;;;;4.60;2.10;;;1.40;99.90;;;;;;1909705;74;27077;-86
2024/04/17 01:06:29;;;;;;;5.73;3.10;;;1.50;99.90;;;;;;1870714;76;25180;-85
2024/04/17 01:09:18;;;;;;;6.43;3.43;;;1.40;99.90;;;;;;1870455;76;25817;-85
2024/04/17 01:12:08;;;;;;;8.00;3.50;;;1.20;99.90;;;;;;1864040;76;25271;-85
2024/04/17 01:14:57;;;;;;;6.80;3.07;;;1.10;99.90;;;;;;1861973;76;25758;-85
2024/04/17 01:17:46;;;;;;;5.80;2.80;;;1.10;99.90;;;;;;1872705;76;25279;-85
2024/04/17 01:20:34;;;;;;;6.83;3.60;;;1.20;99.90;;;;;;1864095;76;25245;-85
2024/04/17 01:23:23;;;;;;;6.80;3.27;;;1.20;99.90;;;;;;1867522;76;25192;-86
2024/04/17 01:26:12;;;;;;;5.83;3.07;;;1.20;99.90;;;;;;1867004;76;25275;-85
2024/04/17 01:29:00;;;;;;;6.10;3.17;;;1.20;99.90;;;;;;1873421;75;25233;-85
2024/04/17 01:31:49;;;;;;;9.20;3.27;;;1.20;99.90;;;;;;1865132;76;25225;-85
2024/04/17 01:34:37;;;;;;;6.63;2.97;;;1.30;99.90;;;;;;1869130;76;25275;-85
2024/04/17 01:37:26;;;;;;;5.07;2.90;;;1.40;99.90;;;;;;1866767;76;25280;-86
2024/04/17 01:40:14;;;;;;;4.10;2.60;;;1.30;99.90;;;;;;1866327;76;25355;-86
2024/04/17 01:43:03;;;;;;;5.50;2.50;;;1.30;99.90;;;;;;1869148;74;25810;-86
2024/04/17 01:45:52;;;;;;;6.10;2.97;;;1.20;99.90;;;;;;1865345;74;25185;-86
2024/04/17 01:48:40;;;;;;;4.73;3.00;;;1.10;99.90;;;;;;1862999;76;25788;-85
2024/04/17 01:51:29;;;;;;;5.50;2.70;;;1.10;99.90;;;;;;1868489;76;25734;-85
2024/04/17 01:54:18;;;;;;;5.03;2.90;;;1.00;99.90;;;;;;1877584;75;25821;-85
2024/04/17 01:59:47;;;;;;;11.40;3.37;;;0.90;99.90;;;;;;1930980;72;27019;-86
2024/04/17 02:02:36;;;;;;;8.53;3.10;;;1.00;99.90;;;;;;1918205;73;25251;-87
2024/04/17 02:05:25;;;;;;;10.60;3.23;;;1.00;99.90;;;;;;1923950;73;25802;-86
2024/04/17 02:08:14;;;;;;;8.53;3.27;;;1.00;99.90;;;;;;1930607;73;25223;-86
2024/04/17 02:11:03;;;;;;;7.87;2.80;;;1.00;99.90;;;;;;1929611;73;25214;-86
2024/04/17 02:13:52;;;;;;;7.07;3.13;;;1.00;99.90;;;;;;1930650;73;25282;-87
2024/04/17 02:16:41;;;;;;;12.13;3.47;;;1.00;99.90;;;;;;1926467;73;25236;-86
2024/04/17 02:19:29;;;;;;;6.07;2.80;;;1.00;99.90;;;;;;1928469;73;25322;-86
2024/04/17 02:22:18;;;;;;;6.97;2.67;;;1.10;99.90;;;;;;1921635;73;26098;-86
2024/04/17 02:25:07;;;;;;;6.77;3.00;;;1.20;99.90;;;;;;1923427;73;25158;-87
2024/04/17 02:30:42;;;;;;;4.97;2.90;;;1.20;99.90;;;;;;1944902;72;27556;-86
2024/04/17 02:33:30;;;;;;;5.43;2.50;;;1.00;99.90;;;;;;1931955;73;25263;-86
2024/04/17 02:36:19;;;;;;;5.93;2.50;;;0.90;99.90;;;;;;1929670;73;25236;-87
2024/04/17 02:39:07;;;;;;;11.93;3.10;;;0.80;99.90;;;;;;1936459;73;25326;-86
2024/04/17 02:41:56;;;;;;;4.93;2.67;;;0.90;99.90;;;;;;1932561;73;25248;-86
2024/04/17 02:44:45;;;;;;;6.30;2.70;;;0.80;99.90;;;;;;1867744;75;25297;-86
2024/04/17 02:47:33;;;;;;;10.93;2.83;;;1.00;99.90;;;;;;1869412;75;25702;-86
2024/04/17 02:53:03;;;;;;;4.37;2.80;;;0.90;99.90;;;;;;1937037;72;27085;-86
2024/04/17 02:55:52;;;;;;;5.23;2.70;;;1.00;99.90;;;;;;1886094;75;25321;-84
2024/04/17 03:01:25;;;;;;;9.77;2.80;;;1.00;99.90;;;;;;1885505;74;27153;-86
2024/04/17 03:04:14;;;;;;;4.10;2.47;;;1.00;99.90;;;;;;1828257;77;25267;-86
2024/04/17 03:07:02;;;;;;;5.40;2.57;;;0.90;99.90;;;;;;1824063;78;25235;-86
2024/04/17 03:09:51;;;;;;;4.73;2.33;;;0.90;99.90;;;;;;1823480;78;25274;-86
2024/04/17 03:12:40;;;;;;;5.33;2.97;;;0.90;99.90;;;;;;1825409;78;25267;-88
2024/04/17 03:15:29;;;;;;;4.63;2.80;;;0.80;99.90;;;;;;1830807;78;25259;-84
2024/04/17 03:21:01;;;;;;;3.63;2.37;;;0.80;99.90;;;;;;1927338;72;27024;-85
2024/04/17 03:23:50;;;;;;;7.10;2.70;;;0.80;99.90;;;;;;1925357;73;25286;-85
2024/04/17 03:26:38;;;;;;;3.67;2.43;;;0.90;99.90;;;;;;1911161;75;25472;-85
2024/04/17 03:29:26;;;;;;;5.70;2.77;;;0.90;99.90;;;;;;1861679;75;25225;-85
2024/04/17 03:34:59;;;;;;;5.63;3.03;;;0.90;99.90;;;;;;1932526;72;27097;-86
2024/04/17 03:37:48;;;;;;;9.80;4.00;;;0.80;99.90;;;;;;1905979;75;25224;-86
2024/04/17 03:40:36;;;;;;;7.00;3.67;;;0.90;99.90;;;;;;1898953;75;25245;-86
2024/04/17 03:43:25;;;;;;;5.77;3.10;;;0.90;99.90;;;;;;1904767;75;25273;-85
2024/04/17 03:46:14;;;;;;;8.23;3.27;;;0.90;99.90;;;;;;1896682;73;25221;-86
2024/04/17 03:49:03;;;;;;;8.13;3.67;;;0.90;99.90;;;;;;1903428;75;25225;-86
2024/04/17 03:51:51;;;;;;;13.23;3.80;;;0.90;99.90;;;;;;1902073;75;25241;-86
2024/04/17 03:54:39;;;;;;;6.07;2.80;;;1.00;99.90;;;;;;1896298;74;25263;-85
2024/04/17 03:57:29;;;;;;;6.00;2.90;;;1.00;99.90;;;;;;1887504;74;25237;-85
2024/04/17 04:00:18;;;;;;;7.30;3.00;;;1.00;99.90;;;;;;1881199;74;25616;-86
2024/04/17 04:03:07;;;;;;;6.70;3.07;;;1.00;99.90;;;;;;1888616;74;25335;-85
2024/04/17 04:05:56;;;;;;;7.13;3.20;;;1.00;99.90;;;;;;1884136;74;25231;-86
2024/04/17 04:08:44;;;;;;;10.63;3.13;;;1.00;99.90;;;;;;1884947;74;25662;-85
2024/04/17 04:11:33;;;;;;;5.50;2.50;;;1.00;99.90;;;;;;1884322;74;25640;-86
2024/04/17 04:14:22;;;;;;;4.10;2.87;;;1.00;99.90;;;;;;1887082;74;25389;-86
2024/04/17 04:17:10;;;;;;;7.27;3.10;;;1.00;99.90;;;;;;1883831;74;25283;-86
2024/04/17 04:22:43;;;;;;;5.57;3.13;;;0.90;99.90;;;;;;1910469;74;27057;-86
2024/04/17 04:25:31;;;;;;;11.13;3.10;;;0.90;99.90;;;;;;1874262;75;25247;-86
2024/04/17 04:28:20;;;;;;;5.90;2.87;;;1.00;99.90;;;;;;1871814;75;25305;-86
2024/04/17 04:31:09;;;;;;;6.00;3.13;;;1.00;99.90;;;;;;1877173;75;25237;-86
2024/04/17 04:33:57;;;;;;;7.00;3.03;;;1.10;99.90;;;;;;1872478;75;25261;-85
2024/04/17 04:36:46;;;;;;;3.80;2.50;;;1.20;99.90;;;;;;1876325;75;25275;-85
2024/04/17 04:39:35;;;;;;;10.53;2.80;;;1.20;99.90;;;;;;1874485;75;25189;-85
2024/04/17 04:42:23;;;;;;;4.67;2.87;;;1.20;99.90;;;;;;1876805;75;25273;-86
2024/04/17 04:45:12;;;;;;;6.90;2.97;;;1.20;99.90;;;;;;1876374;75;25363;-85
2024/04/17 04:48:01;;;;;;;5.93;3.07;;;1.30;99.90;;;;;;1874511;75;25309;-85
2024/04/17 04:50:50;;;;;;;7.97;2.93;;;1.30;99.90;;;;;;1873289;75;25210;-85
2024/04/17 04:56:18;;;;;;;5.07;2.80;;;1.60;99.90;;;;;;1941985;72;27112;-86
2024/04/17 04:59:06;;;;;;;9.37;2.60;;;1.70;99.90;;;;;;1906774;73;25714;-86
2024/04/17 05:01:54;;;;;;;7.07;2.77;;;1.80;99.90;;;;;;1909549;75;25295;-86
2024/04/17 05:04:46;;;;;;;5.87;3.00;;;1.80;99.90;;;;;;1906821;74;25248;-86
2024/04/17 05:07:36;;;;;;;6.13;3.10;;;1.90;99.90;;;;;;1885999;74;25260;-86
2024/04/17 05:10:24;;;;;;;16.10;3.70;;;2.10;99.90;;;;;;1909306;74;25280;-86
2024/04/17 05:13:13;;;;;;;4.90;3.07;;;2.30;99.90;;;;;;1909274;75;25440;-86
2024/04/17 05:16:01;;;;;;;9.83;2.73;;;2.70;99.90;;;;;;1899497;75;25314;-86
2024/04/17 05:18:52;;;;;;;6.87;2.60;;;2.80;99.90;;;;;;1909564;75;25246;-86
2024/04/17 05:21:41;;;;;;;11.57;2.37;;;3.10;99.90;;;;;;1911397;73;25508;-86
2024/04/17 05:24:29;;;;;;;9.87;1.93;;;3.20;99.90;;;;;;1912475;74;25756;-86
2024/04/17 05:27:18;;;;;;;4.37;2.13;;;3.30;99.90;;;;;;1910052;74;25147;-86
2024/04/17 05:30:10;;;;;;;2.83;1.83;;;3.50;99.90;;;;;;1906084;73;25210;-86
2024/04/17 05:35:39;;;;;;;10.50;2.43;;;3.80;99.90;;;;;;1927783;72;27551;-86
2024/04/17 05:38:27;;;;;;;7.03;2.47;;;3.90;99.90;;;;;;1909692;74;25714;-85
2024/04/17 05:41:16;;;;;;;2.00;1.80;;;4.00;99.90;;;;;;1917498;74;25239;-87
2024/04/17 05:44:04;;;;;;;2.07;1.60;;;4.10;99.90;;;;;;1907504;74;25237;-85
2024/04/17 05:49:40;;;;;;;1.93;1.30;;;4.70;99.90;;;;;;1942011;72;27101;-86
2024/04/17 05:52:28;;;;;;;1.93;1.40;;;4.90;99.90;;;;;;1939419;73;25696;-86
2024/04/17 05:55:17;;;;;;;3.23;1.50;;;5.00;99.90;;;;;;1926148;73;25205;-86
2024/04/17 05:58:06;;;;;;;2.30;1.47;;;4.80;99.90;;;;;;1934806;72;25238;-86
2024/04/17 06:03:36;;;;;;;2.03;1.37;;;4.90;99.90;;;;;;1943234;72;27515;-86
2024/04/17 06:06:25;;;;;;;4.03;1.43;;;4.90;99.90;;;;;;1913216;75;25264;-86
2024/04/17 06:09:14;;;;;;;1.90;1.60;;;4.90;99.90;;;;;;1915961;73;25268;-86
2024/04/17 06:12:03;;;;;;;2.43;1.60;;;4.70;99.90;;;;;;1907838;75;25195;-86
2024/04/17 06:14:52;;;;;;;4.10;1.50;;;4.80;99.90;;;;;;1912660;75;25262;-86
2024/04/17 06:17:40;;;;;;;5.20;1.60;;;4.80;99.90;;;;;;1908147;75;25226;-86
2024/04/17 06:20:30;;;;;;;5.90;1.53;;;4.80;99.90;;;;;;1909152;75;25677;-86
2024/04/17 06:23:18;;;;;;;1.60;1.30;;;5.10;99.90;;;;;;1918135;73;25157;-86
2024/04/17 06:26:07;;;;;;;3.30;1.30;;;5.20;99.90;;;;;;1895768;75;25845;-86
2024/04/17 06:28:56;;;;;;;4.00;1.73;;;5.30;99.90;;;;;;1910001;73;25195;-85
2024/04/17 06:31:44;;;;;;;1.73;1.20;;;5.30;99.90;;;;;;1920402;74;25207;-85
2024/04/17 06:34:33;;;;;;;1.20;1.10;;;5.40;99.90;;;;;;1917390;75;25363;-85
2024/04/17 06:37:22;;;;;;;1.17;1.07;;;5.50;99.90;;;;;;1917276;75;25348;-85
2024/04/17 06:40:10;;;;;;;5.03;1.20;;;5.80;99.90;;;;;;1917200;75;25228;-87
2024/04/17 06:42:59;;;;;;;2.23;1.10;;;5.70;99.90;;;;;;1911365;74;25320;-87
2024/04/17 06:45:48;;;;;;;0.90;0.90;;;6.20;99.90;;;;;;1909352;73;25251;-86
2024/04/17 06:48:36;;;;;;;2.57;1.00;;;6.50;99.90;;;;;;1896105;75;25276;-84
2024/04/17 06:51:25;;;;;;;1.20;1.00;;;7.00;99.90;;;;;;1908776;75;25228;-86
2024/04/17 06:54:13;;;;;;;1.43;1.13;;;6.80;99.90;;;;;;1900219;75;25261;-86
2024/04/17 06:57:02;;;;;;;1.73;0.93;;;6.80;99.90;;;;;;1894492;73;25779;-86
2024/04/17 06:59:50;;;;;;;1.60;0.87;;;6.80;99.90;;;;;;1913084;74;25247;-85
2024/04/17 07:02:39;;;;;;;1.90;1.20;;;6.80;99.90;;;;;;1895828;74;25192;-86
2024/04/17 07:08:11;;;;;;;1.30;1.20;;;6.70;99.90;;;;;;1956469;72;27529;-86
2024/04/17 07:10:59;;;;;;;1.00;1.00;;;7.00;99.90;;;;;;1917561;73;25279;-86
2024/04/17 07:13:48;;;;;;;3.03;1.07;;;6.50;99.90;;;;;;1921100;73;25233;-86
2024/04/17 07:16:38;;;;;;;0.97;0.97;;;6.30;99.90;;;;;;1909864;73;25232;-86
2024/04/17 07:19:26;;;;;;;1.40;1.20;;;6.40;99.90;;;;;;1918722;73;25217;-85
2024/04/17 07:22:17;;;;;;;2.67;1.40;;;6.50;99.90;;;;;;1929590;73;25354;-85
2024/04/17 07:27:48;;;;;;;5.30;1.40;;;6.40;99.90;;;;;;1961024;72;27660;-86
2024/04/17 07:30:40;;;;;;;3.33;1.20;;;6.60;99.90;;;;;;1929331;73;25238;-85
2024/04/17 07:33:29;;;;;;;4.20;1.10;;;7.20;99.90;;;;;;1927545;73;25162;-85
2024/04/17 07:39:11;;;;;;;6.90;1.20;;;7.00;99.90;;;;;;1964296;72;27057;-85
2024/04/17 07:41:59;;;;;;;2.07;1.20;;;6.90;99.90;;;;;;1948941;73;25269;-86
2024/04/17 07:44:51;;;;;;;6.03;1.20;;;7.00;99.90;;;;;;1912958;73;25225;-87
2024/04/17 07:50:30;;;;;;;2.80;1.40;;;7.20;99.90;;;;;;2032766;69;27545;-86
2024/04/17 07:55:58;;;;;;;2.53;1.33;;;7.70;99.90;;;;;;1886182;74;27066;-86
2024/04/17 07:58:47;;;;;;;2.90;1.40;;;7.90;99.90;;;;;;1856928;76;25249;-85
2024/04/17 08:01:36;;;;;;;8.30;2.87;;;7.90;99.90;;;;;;1859345;76;25285;-85
2024/04/17 08:04:25;;;;;;;5.90;2.80;;;7.70;99.90;;;;;;1859060;76;25197;-86
2024/04/17 08:07:13;;;;;;;8.73;2.77;;;7.40;99.90;;;;;;1851094;76;25266;-86
2024/04/17 08:10:03;;;;;;;4.70;2.50;;;7.10;99.90;;;;;;1833515;77;25293;-86
2024/04/17 08:12:53;;;;;;;4.00;2.17;;;6.90;99.90;;;;;;1865202;76;25239;-85
2024/04/17 08:15:45;;;;;;;2.40;2.10;;;7.00;99.90;;;;;;1851162;76;25859;-85
2024/04/17 08:18:36;;;;;;;3.17;2.40;;;7.30;99.90;;;;;;1863018;76;25301;-85
2024/04/17 08:21:25;;;;;;;5.40;2.60;;;7.70;99.90;;;;;;1828087;77;25211;-85
2024/04/17 08:24:19;;;;;;;3.33;1.63;;;8.50;99.90;;;;;;1856074;76;25285;-85
2024/04/17 08:27:07;;;;;;;4.17;2.57;;;9.00;99.90;;;;;;1866592;76;25203;-86
2024/04/17 08:30:00;;;;;;;2.53;1.80;;;9.00;99.90;;;;;;1869224;76;25194;-87
2024/04/17 08:35:49;;;;;;;4.70;2.27;;;9.20;99.90;;;;;;1941410;72;27029;-87
2024/04/17 08:38:41;;;;;;;4.97;2.17;;;9.00;99.90;;;;;;1897467;75;25341;-87
2024/04/17 08:41:34;;;;;;;2.57;2.03;;;8.50;99.90;;;;;;1911886;75;25737;-86
2024/04/17 08:47:05;;;;;;;3.00;1.80;;;7.80;99.90;;;;;;1961231;72;26990;-86
2024/04/17 08:49:58;;;;;;;1.83;1.70;;;7.50;99.90;;;;;;1916067;74;25221;-86
2024/04/17 08:52:49;;;;;;;3.00;2.10;;;7.30;99.90;;;;;;1919529;74;25239;-86
2024/04/17 08:55:38;;;;;;;3.03;2.17;;;7.30;99.90;;;;;;1869265;73;25258;-86
2024/04/17 08:58:28;;;;;;;2.50;2.10;;;7.40;99.90;;;;;;1891988;75;25192;-86
2024/04/17 09:04:10;;;;;;;3.23;2.40;;;7.30;99.90;;;;;;1955460;72;27473;-85
2024/04/17 09:07:00;;;;;;;5.50;2.67;;;7.20;99.90;;;;;;1941703;73;25821;-86
2024/04/17 09:09:52;;;;;;;3.00;2.30;;;7.20;99.90;;;;;;1934337;73;25205;-85
2024/04/17 09:12:44;;;;;;;5.43;2.80;;;7.40;99.90;;;;;;1920978;73;25282;-85
2024/04/17 09:15:33;;;;;;;4.10;2.53;;;7.40;99.90;;;;;;1920851;73;25305;-86
2024/04/17 09:18:26;;;;;;;3.70;2.93;;;7.40;99.90;;;;;;1935362;73;25202;-85
2024/04/17 09:21:15;;;;;;;3.80;2.93;;;7.50;99.90;;;;;;1932343;73;26414;-85
2024/04/17 09:24:06;;;;;;;7.20;3.00;;;7.70;99.90;;;;;;1917517;73;25336;-86
2024/04/17 09:26:56;;;;;;;8.57;3.37;;;7.90;99.90;;;;;;1909372;73;25254;-86
2024/04/17 09:32:30;;;;;;;6.23;3.50;;;8.20;99.90;;;;;;1929553;72;26766;-87
2024/04/17 09:35:19;;;;;;;6.47;3.30;;;8.20;99.90;;;;;;1904283;75;25166;-87
2024/04/17 09:38:14;;;;;;;6.47;4.17;;;8.30;99.90;;;;;;1886810;73;25157;-85
2024/04/17 09:41:03;;;;;;;5.53;3.10;;;8.40;99.90;;;;;;1905758;75;25205;-86
2024/04/17 09:43:55;;;;;;;2.50;1.93;;;8.60;99.90;;;;;;1892435;75;25330;-85
2024/04/17 09:49:30;;;;;;;2.97;2.17;;;8.90;99.90;;;;;;1929265;72;27119;-86
2024/04/17 09:52:20;;;;;;;2.17;1.90;;;9.30;99.90;;;;;;1904462;73;25667;-85
2024/04/17 09:57:57;;;;;;;2.70;2.40;;;9.40;99.90;;;;;;1932636;72;27180;-86
2024/04/17 10:00:47;;;;;;;3.20;2.60;;;9.50;99.90;;;;;;1900782;73;25249;-86
2024/04/17 10:06:22;;;;;;;3.97;3.10;;;9.60;99.90;;;;;;1943581;72;26975;-86
2024/04/17 10:09:10;;;;;;;3.30;2.83;;;9.70;99.90;;;;;;1930316;73;25146;-86
2024/04/17 10:14:40;;;;;;;4.00;2.90;;;9.00;99.90;;;;;;1950623;72;27596;-87
2024/04/17 10:17:29;;;;;;;3.10;2.70;;;9.10;99.90;;;;;;1928882;73;25265;-86
2024/04/17 10:20:30;;;;;;;5.23;3.00;;;8.90;99.90;;;;;;1911399;75;25274;-86
2024/04/17 10:23:19;;;;;;;5.87;3.50;;;8.90;99.90;;;;;;1930160;73;25730;-85
2024/04/17 10:28:53;;;;;;;7.87;3.87;;;9.20;99.90;;;;;;2055195;69;26858;-87
2024/04/17 10:31:41;;;;;;;5.53;3.83;;;9.40;99.90;;;;;;1978807;71;25230;-87
2024/04/17 10:34:31;;;;;;;7.57;3.00;;;9.40;99.90;;;;;;2015007;70;25819;-86
2024/04/17 10:37:22;;;;;;;3.77;3.10;;;9.30;99.90;;;;;;2026642;69;25176;-87
2024/04/17 10:40:14;;;;;;;6.07;2.70;;;9.70;99.90;;;;;;2019791;70;25381;-87
2024/04/17 10:43:04;;;;;;;4.03;2.47;;;10.10;99.90;;;;;;2020835;70;25129;-87
2024/04/17 10:45:58;;;;;;;3.83;2.80;;;10.50;99.90;;;;;;1999404;70;25146;-86
2024/04/17 10:48:48;;;;;;;4.00;3.07;;;10.60;99.90;;;;;;2010812;70;25205;-87
2024/04/17 10:51:38;;;;;;;4.80;2.50;;;10.30;99.90;;;;;;2017454;70;25191;-87
2024/04/17 10:54:27;;;;;;;4.47;2.47;;;10.20;99.90;;;;;;1996588;70;25235;-87
2024/04/17 10:59:58;;;;;;;4.80;2.80;;;10.20;99.90;;;;;;1919049;73;27083;-87
2024/04/17 11:02:46;;;;;;;4.83;2.70;;;10.30;99.90;;;;;;1875793;73;25238;-87
2024/04/17 11:05:35;;;;;;;3.67;2.97;;;10.20;99.90;;;;;;1897322;75;25287;-86
2024/04/17 11:08:23;;;;;;;7.90;2.93;;;9.60;99.90;;;;;;1885427;75;25244;-86
2024/04/17 11:11:12;;;;;;;5.23;3.10;;;8.70;99.90;;;;;;1903286;75;25305;-86
2024/04/17 11:14:01;;;;;;;2.23;2.00;;;8.60;99.90;;;;;;1898062;75;25204;-85
2024/04/17 11:16:49;;;;;;;2.00;1.90;;;8.80;99.90;;;;;;1889158;73;25303;-86
2024/04/17 11:19:38;;;;;;;3.13;2.20;;;9.00;99.90;;;;;;1885258;75;25288;-86
2024/04/17 11:22:26;;;;;;;3.43;1.83;;;9.00;99.90;;;;;;1894732;75;25259;-87
2024/04/17 11:25:16;;;;;;;1.67;1.53;;;9.30;99.90;;;;;;1891304;75;25736;-86
2024/04/17 11:28:06;;;;;;;1.57;1.47;;;9.80;99.90;;;;;;1896107;75;25227;-87
2024/04/17 11:30:55;;;;;;;2.83;1.80;;;9.70;99.90;;;;;;1889118;75;25251;-87
2024/04/17 11:36:23;;;;;;;1.70;1.60;;;10.10;99.90;;;;;;1931254;72;26975;-88
2024/04/17 11:39:12;;;;;;;1.57;1.47;;;9.80;99.90;;;;;;1896676;75;25294;-87
2024/04/17 11:42:01;;;;;;;2.40;1.77;;;9.40;99.90;;;;;;1834281;76;25354;-88
2024/04/17 11:47:30;;;;;;;1.40;1.30;;;9.10;99.90;;;;;;1947280;72;27064;-88
2024/04/17 11:50:18;;;;;;;1.03;1.00;;;9.20;99.90;;;;;;1892259;75;25177;-86
2024/04/17 11:53:07;;;;;;;1.10;1.00;;;9.60;99.90;;;;;;1882712;75;25200;-86
2024/04/17 11:55:56;;;;;;;1.13;0.90;;;9.10;99.90;;;;;;1895499;75;25287;-86
2024/04/17 11:58:46;;;;;;;2.10;1.03;;;8.60;99.90;;;;;;1882028;76;25318;-86
2024/04/17 12:01:35;;;;;;;7.73;1.00;;;7.90;99.90;;;;;;1883448;76;25325;-86
2024/04/17 12:04:27;;;;;;;1.27;1.23;;;7.80;99.90;;;;;;1880710;75;25631;-86
2024/04/17 12:07:15;;;;;;;4.80;1.40;;;7.90;99.90;;;;;;1890081;75;25200;-86
2024/04/17 12:10:04;;;;;;;2.70;0.97;;;7.80;99.90;;;;;;1868933;75;25212;-86
2024/04/17 12:12:53;;;;;;;3.43;1.17;;;7.40;99.90;;;;;;1883157;76;25247;-86
2024/04/17 12:15:42;;;;;;;1.37;1.03;;;7.30;99.90;;;;;;1883377;76;25254;-86
2024/04/17 12:21:16;;;;;;;0.80;0.80;;;7.10;99.90;;;;;;1981727;71;27074;-87
2024/04/17 12:26:51;;;;;;;0.60;0.60;;;6.70;99.90;;;;;;1935927;72;27448;-87
2024/04/17 12:29:41;;;;;;;0.50;0.50;;;6.20;99.90;;;;;;1900453;75;25322;-86
2024/04/17 12:32:30;;;;;;;3.63;0.77;;;6.10;99.90;;;;;;1911730;75;25209;-87
2024/04/17 12:35:18;;;;;;;0.50;0.50;;;6.20;99.90;;;;;;1911963;75;25254;-87
2024/04/17 12:38:07;;;;;;;0.70;0.70;;;6.20;99.90;;;;;;1915922;75;25225;-87
2024/04/17 12:40:55;;;;;;;2.00;0.83;;;6.30;99.90;;;;;;1894900;75;25279;-87
2024/04/17 12:43:45;;;;;;;0.90;0.90;;;6.40;99.90;;;;;;1908250;75;25927;-87
2024/04/17 12:46:37;;;;;;;0.70;0.70;;;6.60;99.90;;;;;;1890345;75;25612;-87
2024/04/17 12:52:04;;;;;;;0.80;0.80;;;6.80;99.90;;;;;;1957970;72;26998;-87
2024/04/17 12:54:53;;;;;;;2.30;0.80;;;6.80;99.90;;;;;;1917702;72;25213;-87
2024/04/17 13:00:23;;;;;;;5.73;0.87;;;7.20;99.90;;;;;;1942061;72;26989;-87
2024/04/17 13:06:26;;;;;;;0.80;0.80;;;7.70;99.90;;;;;;1986208;71;26463;-87
2024/04/17 13:09:16;;;;;;;0.80;0.70;;;7.80;99.90;;;;;;1935967;73;25151;-86
2024/04/17 13:14:51;;;;;;;3.23;0.70;;;7.30;99.90;;;;;;1951632;72;26969;-87
2024/04/17 13:17:41;;;;;;;0.70;0.70;;;7.10;99.90;;;;;;1922940;73;25376;-87
2024/04/17 13:20:32;;;;;;;0.60;0.60;;;7.30;99.90;;;;;;1955336;73;25208;-87
2024/04/17 13:23:21;;;;;;;0.50;0.50;;;7.40;99.90;;;;;;1923429;73;25693;-87
2024/04/17 13:26:09;;;;;;;6.17;0.80;;;7.20;99.90;;;;;;1867746;76;25353;-87
2024/04/17 13:28:57;;;;;;;0.70;0.70;;;7.40;99.90;;;;;;1870305;76;25222;-87
2024/04/17 13:31:46;;;;;;;3.50;0.70;;;7.40;99.90;;;;;;1903295;75;25628;-87
2024/04/17 13:34:34;;;;;;;5.00;0.80;;;7.60;99.90;;;;;;1872219;76;25225;-87
2024/04/17 13:37:24;;;;;;;0.97;0.90;;;7.60;99.90;;;;;;1926922;73;25892;-87
2024/04/17 13:40:15;;;;;;;0.70;0.70;;;7.60;99.90;;;;;;1933660;73;25242;-87
2024/04/17 13:43:04;;;;;;;0.80;0.80;;;8.00;99.90;;;;;;1949116;73;25241;-87
2024/04/17 13:45:53;;;;;;;0.70;0.70;;;8.20;99.90;;;;;;1939155;73;25196;-87
2024/04/17 13:48:42;;;;;;;1.07;0.80;;;8.40;99.90;;;;;;1928857;73;25195;-87
2024/04/17 13:51:30;;;;;;;0.60;0.60;;;8.40;99.90;;;;;;1951749;73;25261;-87
2024/04/17 13:54:19;;;;;;;0.83;0.70;;;8.50;99.90;;;;;;1928180;73;25238;-87
2024/04/17 13:59:53;;;;;;;0.83;0.60;;;8.00;99.90;;;;;;1937877;72;27016;-87
2024/04/17 14:02:41;;;;;;;0.77;0.77;;;7.70;99.90;;;;;;1922027;74;25223;-87
2024/04/17 14:05:32;;;;;;;0.70;0.70;;;7.80;99.90;;;;;;1905462;74;25238;-86
2024/04/17 14:11:00;;;;;;;0.80;0.80;;;8.00;99.90;;;;;;1940437;72;27001;-87
2024/04/17 14:13:49;;;;;;;0.80;0.80;;;8.00;99.90;;;;;;1947190;73;25292;-87
2024/04/17 14:16:38;;;;;;;0.97;0.67;;;8.00;99.90;;;;;;1961933;72;25221;-87
2024/04/17 14:19:26;;;;;;;0.80;0.80;;;8.10;99.90;;;;;;1945872;73;25723;-86
2024/04/17 14:22:15;;;;;;;1.23;0.80;;;8.20;99.90;;;;;;1934293;73;25557;-86
2024/04/17 14:27:43;;;;;;;0.80;0.80;;;8.00;99.90;;;;;;1945589;72;27036;-87
2024/04/17 14:30:32;;;;;;;0.73;0.73;;;8.20;99.90;;;;;;1905745;75;26359;-87
2024/04/17 14:36:06;;;;;;;0.73;0.73;;;8.40;99.90;;;;;;1942220;72;27084;-87
2024/04/17 14:38:55;;;;;;;0.60;0.60;;;8.50;99.90;;;;;;1920481;73;25239;-87
2024/04/17 14:41:47;;;;;;;1.27;0.63;;;8.70;99.90;;;;;;1928405;73;25211;-87
2024/04/17 14:44:38;;;;;;;0.73;0.60;;;8.80;99.90;;;;;;1935178;73;25219;-86
2024/04/17 14:47:26;;;;;;;0.90;0.70;;;8.80;99.90;;;;;;1933004;73;25244;-86
2024/04/17 14:50:18;;;;;;;0.80;0.70;;;8.50;99.90;;;;;;1928181;73;25235;-86
2024/04/17 14:53:05;;;;;;;0.70;0.70;;;8.00;99.90;;;;;;1930111;73;25220;-86
2024/04/17 14:55:57;;;;;;;1.07;0.60;;;7.90;99.90;;;;;;1882542;76;25245;-86
2024/04/17 14:58:49;;;;;;;1.07;0.77;;;7.60;99.90;;;;;;1868250;77;25286;-86
2024/04/17 15:01:38;;;;;;;0.60;0.50;;;7.50;99.90;;;;;;1913916;74;25308;-86
2024/04/17 15:04:27;;;;;;;0.50;0.50;;;7.40;99.90;;;;;;1913691;74;25180;-86
2024/04/17 15:07:15;;;;;;;0.93;0.70;;;7.20;99.90;;;;;;1919165;74;25220;-86
2024/04/17 15:10:08;;;;;;;1.33;0.80;;;7.00;99.90;;;;;;1919026;74;25204;-87
2024/04/17 15:15:38;;;;;;;0.80;0.70;;;6.70;99.90;;;;;;1928785;72;27345;-88
2024/04/17 15:21:13;;;;;;;0.70;0.70;;;6.60;99.90;;;;;;1954589;72;27543;-88
2024/04/17 15:24:02;;;;;;;0.83;0.70;;;6.60;99.90;;;;;;1909880;74;25208;-88
2024/04/17 15:26:51;;;;;;;2.83;1.60;;;6.60;99.90;;;;;;1894937;75;25247;-87
2024/04/17 15:29:43;;;;;;;6.33;3.50;;;6.50;99.90;;;;;;1895930;75;25242;-87
2024/04/17 15:32:35;;;;;;;3.40;2.40;;;6.40;99.90;;;;;;1896586;75;25160;-86
2024/04/17 15:35:23;;;;;;;3.40;2.00;;;6.40;99.90;;;;;;1874289;76;25869;-88
2024/04/17 15:38:12;;;;;;;3.23;1.83;;;6.40;99.90;;;;;;1899473;75;25789;-88
2024/04/17 15:41:02;;;;;;;1.30;1.20;;;6.40;99.90;;;;;;1903481;75;25322;-86
2024/04/17 15:43:59;;;;;;;1.20;1.10;;;6.20;99.90;;;;;;1903293;75;25275;-87
2024/04/17 15:46:47;;;;;;;1.10;1.00;;;6.10;99.90;;;;;;1893217;75;25184;-86
2024/04/17 15:49:40;;;;;;;1.13;1.03;;;6.00;99.90;;;;;;1847939;77;25815;-88
2024/04/17 15:52:36;;;;;;;0.90;0.90;;;5.80;99.90;;;;;;1863218;76;25281;-87
2024/04/17 15:58:18;;;;;;;0.90;0.90;;;5.80;99.90;;;;;;1942755;72;27021;-87
2024/04/17 16:04:00;;;;;;;5.37;1.00;;;5.80;99.90;;;;;;1968934;72;27044;-87
2024/04/17 16:06:50;;;;;;;1.00;1.00;;;5.80;99.90;;;;;;1922986;73;25214;-87
2024/04/17 16:12:32;;;;;;;2.93;0.97;;;5.90;99.90;;;;;;1952560;72;28133;-87
2024/04/17 16:15:21;;;;;;;2.93;0.90;;;6.00;99.90;;;;;;1928940;73;25753;-87
2024/04/17 16:18:15;;;;;;;3.57;1.10;;;6.10;99.90;;;;;;1917084;75;25215;-87
2024/04/17 16:21:12;;;;;;;1.70;1.40;;;6.10;99.90;;;;;;1916962;75;25206;-87
2024/04/17 16:24:02;;;;;;;3.77;2.20;;;6.20;99.90;;;;;;1925015;73;26036;-86
2024/04/17 16:29:41;;;;;;;4.03;2.30;;;6.30;99.90;;;;;;1937406;72;26992;-87
2024/04/17 16:32:29;;;;;;;3.10;2.40;;;6.40;99.90;;;;;;1844541;76;25285;-87
2024/04/17 16:35:17;;;;;;;4.30;2.60;;;6.20;99.90;;;;;;1844932;76;25265;-86
2024/04/17 16:38:14;;;;;;;2.60;0.83;;;6.00;99.90;;;;;;1876894;75;25269;-87
2024/04/17 16:41:06;;;;;;;3.73;1.00;;;5.80;99.90;;;;;;1819170;78;25209;-85
2024/04/17 16:43:59;;;;;;;1.57;0.90;;;5.30;99.90;;;;;;1840818;76;25201;-87
2024/04/17 16:46:48;;;;;;;0.80;0.80;;;5.00;99.90;;;;;;1847071;76;25828;-87
2024/04/17 16:49:43;;;;;;;1.40;1.07;;;4.80;99.90;;;;;;1868336;76;25753;-88
2024/04/17 16:55:12;;;;;;;0.93;0.90;;;4.80;99.90;;;;;;1888476;74;27090;-87
2024/04/17 17:00:49;;;;;;;1.00;1.00;;;4.60;99.90;;;;;;1952886;72;27570;-88
2024/04/17 17:03:37;;;;;;;1.00;1.00;;;4.50;99.90;;;;;;1932098;72;25226;-87
2024/04/17 17:09:07;;;;;;;1.53;1.00;;;4.30;99.90;;;;;;1937953;72;27025;-87
2024/04/17 17:14:36;;;;;;;1.03;1.03;;;4.50;99.90;;;;;;1932143;72;27150;-86